Webcam Flughafen St.Gallen-Altenrhein

Live-Bilder und Zeitraffer LSZR / ACH.

 

Live aus Altenrhein
LIVE
LSZR 191250Z 29004KT 7000 FEW008 BKN070 03/02 Q1017 NOSIG RMK I
Zeitraffer heute
2018-12-19 00:14:30
LSZR 182250Z AUTO VRB01KT 6000 SCT004 BKN009 01/00 Q1019
Zeitraffer gestern
2018-12-18 00:14:22
LSZR 172250Z AUTO VRB02KT 9999 OVC050 02/01 Q1029
Zeitraffer vor 3 Tagen
2018-12-16 00:14:03
LSZR 152250Z AUTO 10005KT 9999 NSC M04/M07 Q1017